createdAt,value
2023-06-21T00:00:09.621Z,29.40
2023-06-21T00:01:09.667Z,29.40
2023-06-21T00:02:09.638Z,29.40
2023-06-21T00:03:09.792Z,29.40
2023-06-21T00:04:09.707Z,29.44
2023-06-21T00:05:09.661Z,29.39
2023-06-21T00:06:09.695Z,29.42
2023-06-21T00:07:09.688Z,29.40
2023-06-21T00:08:09.694Z,29.40
2023-06-21T00:09:09.695Z,29.39
2023-06-21T00:10:09.741Z,29.40
2023-06-21T00:11:09.712Z,29.40
2023-06-21T00:12:09.723Z,29.40
2023-06-21T00:13:09.741Z,29.39
2023-06-21T00:14:09.748Z,29.44
2023-06-21T00:15:09.752Z,29.40
2023-06-21T00:16:09.759Z,29.40
2023-06-21T00:17:09.764Z,29.39
2023-06-21T00:18:09.846Z,29.39
2023-06-21T00:19:09.792Z,29.39
2023-06-21T00:20:09.795Z,29.40
2023-06-21T00:21:09.794Z,29.40
2023-06-21T00:22:09.826Z,29.42
2023-06-21T00:23:09.878Z,29.40
2023-06-21T00:24:09.854Z,29.40
2023-06-21T00:25:09.838Z,29.40
2023-06-21T00:26:09.854Z,29.40
2023-06-21T00:27:09.858Z,29.42
2023-06-21T00:28:09.877Z,29.39
2023-06-21T00:29:09.892Z,29.40
2023-06-21T00:30:09.894Z,29.39
2023-06-21T00:31:10.030Z,29.42
2023-06-21T00:32:09.919Z,29.40
2023-06-21T00:33:09.922Z,29.40
2023-06-21T00:34:09.931Z,29.39
2023-06-21T00:35:09.945Z,29.40
2023-06-21T00:36:09.955Z,29.40
2023-06-21T00:37:09.972Z,29.39
2023-06-21T00:38:09.984Z,29.40
2023-06-21T00:39:09.993Z,29.40
2023-06-21T00:40:09.990Z,29.39
2023-06-21T00:41:10.009Z,29.40
2023-06-21T00:42:10.037Z,29.39
2023-06-21T00:43:10.035Z,29.39
2023-06-21T00:44:10.054Z,29.39
2023-06-21T00:45:10.091Z,29.40
2023-06-21T00:46:10.087Z,29.40
2023-06-21T00:47:10.091Z,29.39
2023-06-21T00:48:10.132Z,29.40
2023-06-21T00:49:10.110Z,29.39
2023-06-21T00:50:10.146Z,29.40
2023-06-21T00:51:10.130Z,29.40
2023-06-21T00:52:10.149Z,29.40
2023-06-21T00:53:10.157Z,29.40
2023-06-21T00:54:10.169Z,29.38
2023-06-21T00:55:10.195Z,29.39
2023-06-21T00:56:10.193Z,29.42
2023-06-21T00:57:10.191Z,29.39
2023-06-21T00:58:10.210Z,29.39
2023-06-21T00:59:10.214Z,29.40
2023-06-21T01:00:10.219Z,29.38
2023-06-21T01:01:10.235Z,29.40
2023-06-21T01:02:10.399Z,29.38
2023-06-21T01:03:10.242Z,29.40
2023-06-21T01:04:10.259Z,29.39
2023-06-21T01:05:10.298Z,29.38
2023-06-21T01:06:10.280Z,29.39
2023-06-21T01:07:10.291Z,29.40
2023-06-21T01:08:10.295Z,29.39
2023-06-21T01:09:10.304Z,29.40
2023-06-21T01:10:10.319Z,29.38
2023-06-21T01:11:10.325Z,29.38
2023-06-21T01:12:10.328Z,29.38
2023-06-21T01:13:10.293Z,29.39
2023-06-21T01:14:10.284Z,29.39
2023-06-21T01:15:10.272Z,29.38
2023-06-21T01:16:10.264Z,29.38
2023-06-21T01:17:10.255Z,29.40
2023-06-21T01:18:10.235Z,29.40
2023-06-21T01:19:10.224Z,29.39
2023-06-21T01:20:10.226Z,29.39
2023-06-21T01:21:10.211Z,29.39
2023-06-21T01:22:10.189Z,29.40
2023-06-21T01:23:10.176Z,29.39
2023-06-21T01:24:10.180Z,29.39
2023-06-21T01:25:10.152Z,29.40
2023-06-21T01:26:10.140Z,29.38
2023-06-21T01:27:10.132Z,29.38
2023-06-21T01:28:10.126Z,29.42
2023-06-21T01:29:10.100Z,29.40
2023-06-21T01:30:10.102Z,29.36
2023-06-21T01:31:10.069Z,29.39
2023-06-21T01:32:10.047Z,29.38
2023-06-21T01:33:10.087Z,29.39
2023-06-21T01:34:10.011Z,29.38
2023-06-21T01:35:11.168Z,29.39
2023-06-21T01:36:09.987Z,29.38
2023-06-21T01:37:10.042Z,29.40
2023-06-21T01:38:09.956Z,29.36
2023-06-21T01:39:09.957Z,29.40
2023-06-21T01:40:09.932Z,29.39
2023-06-21T01:41:09.937Z,29.36
2023-06-21T01:42:09.902Z,29.38
2023-06-21T01:43:09.887Z,29.38
2023-06-21T01:44:09.888Z,29.38
2023-06-21T01:45:09.867Z,29.40
2023-06-21T01:46:09.887Z,29.38
2023-06-21T01:47:09.849Z,29.39
2023-06-21T01:48:09.833Z,29.39
2023-06-21T01:49:09.822Z,29.38
2023-06-21T01:50:09.817Z,29.36
2023-06-21T01:51:09.802Z,29.38
2023-06-21T01:52:09.784Z,29.38
2023-06-21T01:53:09.766Z,29.39
2023-06-21T01:54:09.764Z,29.39
2023-06-21T01:55:09.752Z,29.38
2023-06-21T01:56:09.746Z,29.36
2023-06-21T01:57:09.730Z,29.38
2023-06-21T01:58:09.731Z,29.39
2023-06-21T01:59:09.696Z,29.39
2023-06-21T02:00:09.692Z,29.39
2023-06-21T02:01:09.676Z,29.39
2023-06-21T02:02:09.741Z,29.38
2023-06-21T02:03:09.674Z,29.38
2023-06-21T02:04:09.646Z,29.36
2023-06-21T02:05:09.647Z,29.39
2023-06-21T02:06:09.613Z,29.36
2023-06-21T02:07:09.606Z,29.40
2023-06-21T02:08:09.588Z,29.39
2023-06-21T02:09:09.587Z,29.39
2023-06-21T02:10:09.573Z,29.38
2023-06-21T02:11:09.559Z,29.39
2023-06-21T02:12:09.556Z,29.38
2023-06-21T02:13:09.535Z,29.39
2023-06-21T02:14:09.524Z,29.38
2023-06-21T02:15:09.510Z,29.36
2023-06-21T02:16:09.497Z,29.36
2023-06-21T02:17:09.486Z,29.38
2023-06-21T02:18:09.472Z,29.35
2023-06-21T02:19:09.463Z,29.38
2023-06-21T02:20:09.450Z,29.35
2023-06-21T02:21:09.440Z,29.38
2023-06-21T02:22:09.420Z,29.38
2023-06-21T02:23:09.410Z,29.36
2023-06-21T02:24:09.496Z,29.38
2023-06-21T02:25:09.397Z,29.38
2023-06-21T02:26:10.284Z,29.36
2023-06-21T02:27:09.372Z,29.36
2023-06-21T02:28:09.360Z,29.36
2023-06-21T02:29:09.354Z,29.36
2023-06-21T02:30:09.347Z,29.36
2023-06-21T02:31:09.322Z,29.39
2023-06-21T02:32:09.314Z,29.36
2023-06-21T02:33:09.316Z,29.38
2023-06-21T02:34:09.351Z,29.38
2023-06-21T02:35:09.264Z,29.36
2023-06-21T02:36:09.253Z,29.36
2023-06-21T02:37:09.249Z,29.36
2023-06-21T02:38:09.244Z,29.38
2023-06-21T02:39:09.225Z,29.38
2023-06-21T02:40:09.213Z,29.36
2023-06-21T02:41:09.199Z,29.36
2023-06-21T02:42:09.195Z,29.35
2023-06-21T02:43:09.184Z,29.38
2023-06-21T02:44:09.167Z,29.38
2023-06-21T02:45:09.158Z,29.38
2023-06-21T02:46:09.189Z,29.36
2023-06-21T02:47:09.132Z,29.38
2023-06-21T02:48:09.164Z,29.38
2023-06-21T02:49:09.102Z,29.36
2023-06-21T02:50:09.088Z,29.38
2023-06-21T02:51:09.077Z,29.36
2023-06-21T02:52:09.071Z,29.38
2023-06-21T02:53:09.047Z,29.36
2023-06-21T02:54:09.041Z,29.36
2023-06-21T02:55:09.019Z,29.36
2023-06-21T02:56:09.008Z,29.35
2023-06-21T02:57:09.001Z,29.36
2023-06-21T02:58:08.977Z,29.38
2023-06-21T02:59:08.958Z,29.35
2023-06-21T03:00:08.948Z,29.35
2023-06-21T03:01:08.981Z,29.36
2023-06-21T03:02:08.930Z,29.36
2023-06-21T03:03:09.014Z,29.35
2023-06-21T03:04:08.965Z,29.36
2023-06-21T03:05:08.890Z,29.35
2023-06-21T03:06:08.881Z,29.36
2023-06-21T03:07:08.880Z,29.36
2023-06-21T03:08:08.857Z,29.38
2023-06-21T03:09:08.865Z,29.36
2023-06-21T03:10:08.838Z,29.35
2023-06-21T03:11:08.832Z,29.36
2023-06-21T03:12:08.929Z,29.38
2023-06-21T03:13:08.816Z,29.36
2023-06-21T03:14:08.814Z,29.35
2023-06-21T03:15:08.815Z,29.38
2023-06-21T03:16:08.862Z,29.35
2023-06-21T03:17:08.779Z,29.38
2023-06-21T03:18:08.808Z,29.36
2023-06-21T03:19:08.817Z,29.35
2023-06-21T03:20:08.727Z,29.35
2023-06-21T03:21:08.723Z,29.36
2023-06-21T03:22:08.776Z,29.36
2023-06-21T03:23:08.713Z,29.36
2023-06-21T03:24:08.772Z,29.35
2023-06-21T03:25:08.679Z,29.38
2023-06-21T03:26:08.660Z,29.35
2023-06-21T03:27:08.642Z,29.36
2023-06-21T03:28:08.623Z,29.35
2023-06-21T03:29:08.610Z,29.36
2023-06-21T03:30:08.609Z,29.33
2023-06-21T03:31:08.621Z,29.35
2023-06-21T03:32:08.580Z,29.36
2023-06-21T03:33:08.560Z,29.36
2023-06-21T03:34:08.544Z,29.35
2023-06-21T03:35:08.528Z,29.33
2023-06-21T03:36:08.512Z,29.36
2023-06-21T03:37:08.498Z,29.35
2023-06-21T03:38:08.498Z,29.35
2023-06-21T03:39:08.470Z,29.35
2023-06-21T03:40:08.456Z,29.36
2023-06-21T03:41:08.441Z,29.35
2023-06-21T03:42:08.424Z,29.32
2023-06-21T03:43:08.428Z,29.33
2023-06-21T03:44:08.399Z,29.35
2023-06-21T03:45:08.382Z,29.35
2023-06-21T03:46:08.414Z,29.35
2023-06-21T03:47:08.365Z,29.35
2023-06-21T03:48:08.396Z,29.35
2023-06-21T03:49:08.310Z,29.35
2023-06-21T03:50:08.316Z,29.36
2023-06-21T03:51:08.293Z,29.36
2023-06-21T03:52:08.291Z,29.35
2023-06-21T03:53:08.295Z,29.33
2023-06-21T03:54:08.256Z,29.38
2023-06-21T03:55:08.244Z,29.35
2023-06-21T03:56:08.225Z,29.35
2023-06-21T03:57:08.215Z,29.33
2023-06-21T03:58:08.208Z,29.33
2023-06-21T03:59:08.190Z,29.35
2023-06-21T04:00:08.240Z,29.33
2023-06-21T04:01:08.167Z,29.35
2023-06-21T04:02:08.192Z,29.36
2023-06-21T04:03:08.309Z,29.35
2023-06-21T04:04:08.149Z,29.36
2023-06-21T04:05:08.112Z,29.33
2023-06-21T04:06:08.092Z,29.35
2023-06-21T04:07:08.085Z,29.35
2023-06-21T04:08:08.076Z,29.33
2023-06-21T04:09:08.069Z,29.33
2023-06-21T04:10:08.048Z,29.36
2023-06-21T04:11:08.039Z,29.35
2023-06-21T04:12:08.025Z,29.33
2023-06-21T04:13:08.046Z,29.33
2023-06-21T04:14:07.999Z,29.33
2023-06-21T04:15:07.999Z,29.35
2023-06-21T04:16:07.967Z,29.33
2023-06-21T04:17:07.978Z,29.36
2023-06-21T04:18:08.006Z,29.32
2023-06-21T04:19:07.938Z,29.35
2023-06-21T04:20:07.921Z,29.35
2023-06-21T04:21:07.902Z,29.35
2023-06-21T04:22:07.903Z,29.35
2023-06-21T04:23:07.889Z,29.33
2023-06-21T04:24:07.889Z,29.35
2023-06-21T04:25:07.852Z,29.33
2023-06-21T04:26:07.840Z,29.33
2023-06-21T04:27:07.815Z,29.35
2023-06-21T04:28:07.796Z,29.33
2023-06-21T04:29:07.796Z,29.32
2023-06-21T04:30:07.762Z,29.35
2023-06-21T04:31:07.778Z,29.32
2023-06-21T04:32:07.732Z,29.32
2023-06-21T04:33:07.718Z,29.33
2023-06-21T04:34:07.714Z,29.32
2023-06-21T04:35:07.692Z,29.33
2023-06-21T04:36:07.696Z,29.32
2023-06-21T04:37:07.663Z,29.35
2023-06-21T04:38:07.650Z,29.35
2023-06-21T04:39:07.638Z,29.33
2023-06-21T04:40:16.389Z,29.32
2023-06-21T04:41:08.600Z,29.33
2023-06-21T04:42:07.564Z,29.35
2023-06-21T04:43:07.565Z,29.32
2023-06-21T04:44:07.505Z,29.36
2023-06-21T04:45:07.494Z,29.33
2023-06-21T04:46:07.495Z,29.33
2023-06-21T04:47:07.404Z,29.33
2023-06-21T04:48:07.429Z,29.33
2023-06-21T04:49:07.344Z,29.31
2023-06-21T04:50:20.238Z,29.33
2023-06-21T04:51:08.276Z,29.35
2023-06-21T04:52:07.245Z,29.35
2023-06-21T04:53:07.222Z,29.33
2023-06-21T04:54:07.255Z,29.33
2023-06-21T04:55:07.157Z,29.33
2023-06-21T04:56:07.127Z,29.33
2023-06-21T04:57:07.102Z,29.31
2023-06-21T04:58:07.106Z,29.33
2023-06-21T04:59:07.036Z,29.35
2023-06-21T05:00:07.010Z,29.32
2023-06-21T05:01:06.978Z,29.32
2023-06-21T05:02:07.041Z,29.35
2023-06-21T05:03:07.074Z,29.32
2023-06-21T05:04:06.894Z,29.32
2023-06-21T05:05:06.885Z,29.33
2023-06-21T05:06:06.839Z,29.32
2023-06-21T05:07:06.800Z,29.32
2023-06-21T05:08:06.788Z,29.32
2023-06-21T05:09:06.838Z,29.33
2023-06-21T05:10:06.724Z,29.33
2023-06-21T05:11:06.730Z,29.33
2023-06-21T05:12:06.699Z,29.33
2023-06-21T05:13:06.626Z,29.33
2023-06-21T05:14:06.612Z,29.33
2023-06-21T05:15:07.108Z,29.33
2023-06-21T05:16:06.518Z,29.31
2023-06-21T05:17:06.489Z,29.33
2023-06-21T05:18:06.509Z,29.33
2023-06-21T05:19:06.429Z,29.33
2023-06-21T05:20:06.384Z,29.32
2023-06-21T05:21:06.357Z,29.33
2023-06-21T05:22:06.349Z,29.31
2023-06-21T05:23:06.328Z,29.32
2023-06-21T05:24:06.318Z,29.33
2023-06-21T05:25:06.312Z,29.32
2023-06-21T05:26:06.302Z,29.33
2023-06-21T05:27:06.291Z,29.31
2023-06-21T05:28:06.316Z,29.31
2023-06-21T05:29:06.975Z,29.32
2023-06-21T05:30:06.296Z,29.31
2023-06-21T05:31:06.355Z,29.28
2023-06-21T05:32:06.286Z,29.28
2023-06-21T05:33:06.348Z,29.28
2023-06-21T05:34:06.260Z,29.32
2023-06-21T05:35:06.266Z,29.32
2023-06-21T05:36:06.248Z,29.31
2023-06-21T05:37:06.225Z,29.33
2023-06-21T05:38:06.226Z,29.33
2023-06-21T05:39:06.207Z,29.33
2023-06-21T05:40:06.197Z,29.36
2023-06-21T05:41:06.180Z,29.35
2023-06-21T05:42:06.229Z,29.36
2023-06-21T05:43:06.156Z,29.36
2023-06-21T05:44:06.140Z,29.38
2023-06-21T05:45:06.137Z,29.36
2023-06-21T05:46:06.138Z,29.38
2023-06-21T05:47:06.103Z,29.36
2023-06-21T05:48:06.157Z,29.38
2023-06-21T05:49:06.078Z,29.39
2023-06-21T05:50:06.078Z,29.36
2023-06-21T05:51:06.062Z,29.36
2023-06-21T05:52:06.052Z,29.36
2023-06-21T05:53:06.042Z,29.38
2023-06-21T05:54:06.027Z,29.38
2023-06-21T05:55:06.029Z,29.40
2023-06-21T05:56:06.009Z,29.38
2023-06-21T05:57:05.999Z,29.38
2023-06-21T05:58:05.979Z,29.40
2023-06-21T05:59:05.971Z,29.38
2023-06-21T06:00:05.953Z,29.40
2023-06-21T06:01:15.926Z,29.38
2023-06-21T06:02:06.971Z,29.40
2023-06-21T06:03:05.926Z,29.40
2023-06-21T06:04:05.901Z,29.40
2023-06-21T06:05:05.823Z,29.40
2023-06-21T06:06:05.801Z,29.39
2023-06-21T06:07:05.768Z,29.39
2023-06-21T06:08:05.736Z,29.39
2023-06-21T06:09:05.703Z,29.40
2023-06-21T06:10:05.692Z,29.39
2023-06-21T06:11:05.632Z,29.39
2023-06-21T06:12:07.233Z,29.39
2023-06-21T06:13:05.580Z,29.40
2023-06-21T06:14:05.559Z,29.40
2023-06-21T06:15:05.523Z,29.39
2023-06-21T06:16:05.508Z,29.39
2023-06-21T06:17:05.453Z,29.40
2023-06-21T06:18:05.442Z,29.39
2023-06-21T06:19:05.388Z,29.39
2023-06-21T06:20:05.354Z,29.39
2023-06-21T06:21:05.324Z,29.40
2023-06-21T06:22:05.291Z,29.39
2023-06-21T06:23:05.254Z,29.39
2023-06-21T06:24:05.213Z,29.38
2023-06-21T06:25:05.177Z,29.32
2023-06-21T06:26:05.162Z,29.33
2023-06-21T06:27:05.115Z,29.32
2023-06-21T06:28:05.133Z,29.33
2023-06-21T06:29:05.070Z,29.35
2023-06-21T06:30:05.038Z,29.33
2023-06-21T06:31:05.027Z,29.38
2023-06-21T06:32:04.972Z,29.39
2023-06-21T06:33:04.995Z,29.38
2023-06-21T06:34:04.934Z,29.42
2023-06-21T06:35:04.885Z,29.38
2023-06-21T06:36:04.863Z,29.40
2023-06-21T06:37:13.986Z,29.45
2023-06-21T06:38:05.776Z,29.46
2023-06-21T06:39:04.754Z,29.52
2023-06-21T06:40:04.724Z,29.49
2023-06-21T06:41:04.692Z,29.48
2023-06-21T06:42:04.664Z,29.48
2023-06-21T06:43:04.633Z,29.50
2023-06-21T06:44:04.597Z,29.49
2023-06-21T06:45:04.553Z,29.48
2023-06-21T06:46:04.534Z,29.52
2023-06-21T06:47:04.479Z,29.49
2023-06-21T06:48:04.509Z,29.50
2023-06-21T06:49:04.449Z,29.52
2023-06-21T06:50:04.442Z,29.55
2023-06-21T06:51:05.036Z,29.56
2023-06-21T06:52:04.453Z,29.59
2023-06-21T06:53:04.452Z,29.62
2023-06-21T06:54:04.463Z,29.62
2023-06-21T06:55:04.515Z,29.62
2023-06-21T06:56:04.531Z,29.64
2023-06-21T06:57:04.561Z,29.66
2023-06-21T06:58:06.563Z,29.69
2023-06-21T06:59:04.510Z,29.69
2023-06-21T07:00:04.443Z,29.73
2023-06-21T07:01:04.496Z,29.73
2023-06-21T07:02:04.452Z,29.73
2023-06-21T07:03:04.542Z,29.76
2023-06-21T07:04:04.587Z,29.74
2023-06-21T07:05:04.569Z,29.77
2023-06-21T07:06:04.590Z,29.73
2023-06-21T07:07:04.585Z,29.76
2023-06-21T07:08:04.614Z,29.76
2023-06-21T07:09:04.649Z,29.80
2023-06-21T07:10:04.675Z,29.79
2023-06-21T07:11:04.684Z,29.77
2023-06-21T07:12:04.714Z,29.80
2023-06-21T07:13:04.758Z,29.80
2023-06-21T07:14:04.776Z,29.80
2023-06-21T07:15:04.860Z,29.81
2023-06-21T07:16:04.784Z,29.84
2023-06-21T07:17:04.820Z,29.84
2023-06-21T07:18:04.980Z,29.88
2023-06-21T07:19:04.877Z,29.88
2023-06-21T07:20:04.930Z,29.88
2023-06-21T07:21:04.906Z,29.92
2023-06-21T07:22:04.909Z,29.94
2023-06-21T07:23:05.595Z,29.91
2023-06-21T07:24:05.949Z,29.91
2023-06-21T07:25:04.993Z,29.92
2023-06-21T07:26:05.069Z,29.94
2023-06-21T07:27:05.107Z,29.94
2023-06-21T07:28:05.098Z,29.96
2023-06-21T07:29:05.129Z,29.96
2023-06-21T07:30:05.223Z,29.96
2023-06-21T07:31:05.278Z,29.96
2023-06-21T07:32:05.226Z,29.96
2023-06-21T07:33:05.317Z,29.94
2023-06-21T07:34:07.939Z,29.96
2023-06-21T07:35:06.268Z,29.92
2023-06-21T07:36:05.237Z,29.94
2023-06-21T07:37:05.204Z,29.96
2023-06-21T07:38:05.163Z,29.92
2023-06-21T07:39:05.128Z,29.94
2023-06-21T07:40:05.100Z,29.94
2023-06-21T07:41:05.072Z,29.94
2023-06-21T07:42:13.401Z,29.96
2023-06-21T07:43:06.014Z,29.92
2023-06-21T07:44:04.988Z,29.94
2023-06-21T07:45:05.010Z,29.92
2023-06-21T07:46:15.057Z,29.96
2023-06-21T07:47:05.864Z,29.92
2023-06-21T07:48:04.822Z,29.92
2023-06-21T07:49:04.777Z,29.96
2023-06-21T07:50:17.098Z,29.96
2023-06-21T07:51:05.695Z,29.96
2023-06-21T07:52:04.650Z,29.94
2023-06-21T07:53:04.631Z,29.94
2023-06-21T07:54:04.674Z,29.96
2023-06-21T07:55:05.541Z,29.97
2023-06-21T07:56:04.495Z,30.01
2023-06-21T07:57:04.466Z,30.00
2023-06-21T07:58:04.428Z,30.00
2023-06-21T07:59:04.396Z,30.00
2023-06-21T08:00:04.400Z,30.01
2023-06-21T08:01:04.449Z,30.03
2023-06-21T08:02:04.477Z,30.01
2023-06-21T08:03:04.529Z,30.05
2023-06-21T08:04:04.533Z,30.03
2023-06-21T08:05:04.550Z,30.03
2023-06-21T08:06:04.569Z,30.03
2023-06-21T08:07:04.615Z,30.05
2023-06-21T08:08:04.649Z,30.05
2023-06-21T08:09:04.685Z,30.03
2023-06-21T08:10:04.724Z,30.05
2023-06-21T08:11:04.762Z,30.04
2023-06-21T08:12:04.785Z,30.03
2023-06-21T08:13:05.062Z,30.05
2023-06-21T08:14:04.867Z,30.05
2023-06-21T08:15:04.906Z,30.07
2023-06-21T08:16:04.937Z,30.07
2023-06-21T08:17:04.888Z,30.07
2023-06-21T08:18:04.935Z,30.07
2023-06-21T08:19:04.840Z,30.09
2023-06-21T08:20:04.811Z,30.08
2023-06-21T08:21:04.839Z,30.09
2023-06-21T08:22:04.733Z,30.12
2023-06-21T08:23:04.708Z,30.14
2023-06-21T08:24:04.658Z,30.16
2023-06-21T08:25:05.648Z,30.19
2023-06-21T08:26:04.580Z,30.18
2023-06-21T08:27:04.547Z,30.21
2023-06-21T08:28:04.499Z,30.21
2023-06-21T08:29:04.554Z,30.21
2023-06-21T08:30:04.420Z,30.22
2023-06-21T08:31:04.377Z,30.23
2023-06-21T08:32:04.387Z,30.21
2023-06-21T08:33:04.355Z,30.22
2023-06-21T08:34:05.140Z,30.23
2023-06-21T08:35:04.228Z,30.25
2023-06-21T08:36:04.193Z,30.22
2023-06-21T08:37:04.172Z,30.26
2023-06-21T08:38:12.111Z,30.28
2023-06-21T08:39:05.075Z,30.28
2023-06-21T08:40:04.185Z,30.33
2023-06-21T08:41:03.998Z,30.31
2023-06-21T08:42:03.952Z,30.26
2023-06-21T08:43:03.928Z,30.21
2023-06-21T08:44:04.903Z,30.16
2023-06-21T08:45:03.859Z,29.90
2023-06-21T08:46:05.914Z,29.84
2023-06-21T08:47:03.811Z,29.90
2023-06-21T08:48:03.794Z,29.87
2023-06-21T08:49:03.743Z,29.80
2023-06-21T08:50:03.712Z,29.69
2023-06-21T08:51:03.691Z,29.55
2023-06-21T08:52:03.666Z,29.59
2023-06-21T08:53:03.634Z,29.52
2023-06-21T08:54:03.612Z,29.44
2023-06-21T08:55:03.621Z,29.46
2023-06-21T08:56:03.566Z,29.42
2023-06-21T08:57:03.557Z,29.48
2023-06-21T08:58:04.586Z,29.56
2023-06-21T08:59:03.490Z,29.56
2023-06-21T09:00:03.438Z,29.66
2023-06-21T09:01:03.421Z,29.74
2023-06-21T09:02:04.041Z,29.77
2023-06-21T09:03:03.487Z,29.85
2023-06-21T09:04:03.528Z,29.88
2023-06-21T09:05:03.285Z,29.97
2023-06-21T09:06:03.143Z,30.03
2023-06-21T09:07:03.086Z,30.07
2023-06-21T09:08:05.148Z,30.14
2023-06-21T09:09:03.115Z,30.14
2023-06-21T09:10:02.947Z,29.91
2023-06-21T09:11:02.903Z,30.01
2023-06-21T09:12:02.878Z,29.77
2023-06-21T09:13:02.846Z,29.69
2023-06-21T09:14:04.495Z,29.77
2023-06-21T09:15:02.814Z,29.85
2023-06-21T09:16:02.754Z,29.90
2023-06-21T09:17:02.716Z,29.91
2023-06-21T09:18:02.787Z,29.94
2023-06-21T09:19:02.658Z,29.97
2023-06-21T09:20:02.646Z,29.98
2023-06-21T09:21:02.676Z,30.04
2023-06-21T09:22:02.705Z,30.03
2023-06-21T09:23:02.714Z,30.08
2023-06-21T09:24:02.733Z,30.12
2023-06-21T09:25:02.751Z,30.15
2023-06-21T09:26:02.747Z,30.19
2023-06-21T09:27:02.740Z,30.23
2023-06-21T09:28:02.740Z,30.23
2023-06-21T09:29:02.721Z,30.26
2023-06-21T09:30:23.194Z,30.31
2023-06-21T09:31:03.647Z,30.35
2023-06-21T09:32:02.594Z,30.36
2023-06-21T09:33:02.624Z,30.38
2023-06-21T09:34:02.542Z,30.40
2023-06-21T09:35:02.462Z,30.44
2023-06-21T09:36:02.441Z,30.46
2023-06-21T09:37:02.371Z,30.47
2023-06-21T09:38:02.333Z,30.52
2023-06-21T09:39:02.290Z,30.56
2023-06-21T09:40:02.291Z,30.56
2023-06-21T09:41:02.213Z,30.57
2023-06-21T09:42:02.191Z,30.60
2023-06-21T09:43:02.125Z,30.63
2023-06-21T09:44:02.157Z,30.65
2023-06-21T09:45:02.046Z,30.65
2023-06-21T09:46:02.032Z,30.70
2023-06-21T09:47:01.963Z,30.69
2023-06-21T09:48:01.949Z,30.71
2023-06-21T09:49:01.896Z,30.73
2023-06-21T09:50:01.866Z,30.75
2023-06-21T09:51:01.765Z,30.75
2023-06-21T09:52:02.583Z,30.75
2023-06-21T09:53:01.786Z,30.75
2023-06-21T09:54:01.637Z,30.77
2023-06-21T09:55:01.570Z,30.77
2023-06-21T09:56:01.548Z,30.81
2023-06-21T09:57:01.476Z,30.80
2023-06-21T09:58:01.425Z,30.80
2023-06-21T09:59:01.396Z,30.83
2023-06-21T10:00:01.427Z,30.84
2023-06-21T10:01:01.986Z,30.87
2023-06-21T10:02:01.444Z,30.84
2023-06-21T10:03:01.280Z,30.87
2023-06-21T10:04:02.239Z,30.87
2023-06-21T10:05:01.095Z,30.90
2023-06-21T10:06:01.033Z,30.92
2023-06-21T10:07:02.510Z,30.92
2023-06-21T10:08:00.941Z,30.92
2023-06-21T10:09:00.898Z,30.94
2023-06-21T10:10:00.843Z,30.97
2023-06-21T10:11:00.899Z,30.95
2023-06-21T10:12:00.748Z,30.97
2023-06-21T10:13:00.706Z,30.99
2023-06-21T10:14:00.668Z,30.98
2023-06-21T10:15:00.654Z,30.98
2023-06-21T10:16:00.581Z,30.95
2023-06-21T10:17:00.528Z,30.97
2023-06-21T10:18:06.131Z,30.95
2023-06-21T10:19:01.436Z,30.97
2023-06-21T10:20:00.380Z,30.94
2023-06-21T10:21:00.344Z,30.92
2023-06-21T10:22:00.299Z,30.91
2023-06-21T10:23:00.246Z,30.90
2023-06-21T10:24:00.207Z,30.88
2023-06-21T10:25:01.422Z,30.87
2023-06-21T10:26:00.116Z,30.87
2023-06-21T10:27:00.057Z,30.87
2023-06-21T10:28:00.031Z,30.84
2023-06-21T10:29:00.004Z,30.84
2023-06-21T10:30:00.000Z,30.83
2023-06-21T10:31:00.036Z,30.81
2023-06-21T10:32:00.011Z,30.80
2023-06-21T10:33:00.029Z,30.81
2023-06-21T10:33:59.995Z,30.81
2023-06-21T10:35:00.004Z,30.78
2023-06-21T10:35:59.970Z,30.75
2023-06-21T10:36:59.954Z,30.75
2023-06-21T10:37:59.953Z,30.75
2023-06-21T10:38:59.946Z,30.77
2023-06-21T10:40:09.347Z,30.73
2023-06-21T10:41:00.912Z,30.73
2023-06-21T10:41:59.910Z,30.73
2023-06-21T10:42:59.845Z,30.73
2023-06-21T10:43:59.789Z,30.70
2023-06-21T10:44:59.745Z,30.70
2023-06-21T10:45:59.714Z,30.70
2023-06-21T10:46:59.663Z,30.69
2023-06-21T10:47:59.675Z,30.69
2023-06-21T10:48:59.579Z,30.69
2023-06-21T10:49:59.579Z,30.71
2023-06-21T10:50:59.479Z,30.67
2023-06-21T10:51:59.443Z,30.65
2023-06-21T10:52:59.441Z,30.67
2023-06-21T10:53:59.464Z,30.66
2023-06-21T10:54:59.438Z,30.65
2023-06-21T10:55:59.399Z,30.65
2023-06-21T10:56:59.382Z,30.62
2023-06-21T10:57:59.392Z,30.65
2023-06-21T10:58:59.420Z,30.63
2023-06-21T10:59:59.436Z,30.63
2023-06-21T11:00:59.481Z,30.63
2023-06-21T11:01:59.535Z,30.65
2023-06-21T11:03:00.528Z,30.62
2023-06-21T11:03:59.450Z,30.62
2023-06-21T11:04:59.443Z,30.62
2023-06-21T11:05:59.329Z,30.60
2023-06-21T11:06:59.301Z,30.60
2023-06-21T11:07:59.258Z,30.60
2023-06-21T11:08:59.224Z,30.59
2023-06-21T11:09:59.168Z,30.62
2023-06-21T11:10:59.134Z,30.59
2023-06-21T11:11:59.086Z,30.56
2023-06-21T11:12:59.067Z,30.59
2023-06-21T11:13:59.026Z,30.57
2023-06-21T11:14:59.050Z,30.59
2023-06-21T11:15:59.087Z,30.57
2023-06-21T11:16:59.088Z,30.57
2023-06-21T11:17:59.205Z,30.57
2023-06-21T11:18:59.149Z,30.57
2023-06-21T11:19:59.217Z,30.55
2023-06-21T11:20:59.145Z,30.55
2023-06-21T11:21:59.165Z,30.53
2023-06-21T11:22:59.077Z,30.56
2023-06-21T11:23:59.056Z,30.57
2023-06-21T11:24:59.227Z,30.55
2023-06-21T11:25:59.116Z,30.56
2023-06-21T11:26:59.235Z,30.53
2023-06-21T11:27:59.149Z,30.55
2023-06-21T11:28:59.146Z,30.52
2023-06-21T11:29:59.200Z,30.53
2023-06-21T11:30:59.213Z,30.52
2023-06-21T11:31:59.180Z,30.52
2023-06-21T11:32:59.277Z,30.52
2023-06-21T11:33:59.174Z,30.53
2023-06-21T11:34:59.181Z,30.52
2023-06-21T11:35:59.156Z,30.49
2023-06-21T11:36:59.154Z,30.49
2023-06-21T11:37:59.154Z,30.50
2023-06-21T11:38:59.175Z,30.49
2023-06-21T11:39:59.161Z,30.49
2023-06-21T11:40:59.155Z,30.53
2023-06-21T11:41:59.144Z,30.49
2023-06-21T11:42:59.117Z,30.49
2023-06-21T11:43:59.080Z,30.50
2023-06-21T11:44:59.051Z,30.47
2023-06-21T11:45:59.018Z,30.47
2023-06-21T11:46:58.984Z,30.46
2023-06-21T11:47:58.987Z,30.44
2023-06-21T11:48:58.945Z,30.44
2023-06-21T11:49:58.930Z,30.42
2023-06-21T11:50:58.843Z,30.44
2023-06-21T11:51:58.828Z,30.39
2023-06-21T11:52:58.806Z,30.42
2023-06-21T11:53:58.781Z,30.40
2023-06-21T11:54:58.746Z,30.39
2023-06-21T11:55:58.718Z,30.40
2023-06-21T11:56:58.700Z,30.40
2023-06-21T11:57:58.673Z,30.39
2023-06-21T11:58:58.627Z,30.39
2023-06-21T11:59:58.592Z,30.38
2023-06-21T12:00:58.581Z,30.36
2023-06-21T12:01:59.433Z,30.38
2023-06-21T12:02:58.621Z,30.38
2023-06-21T12:03:58.541Z,30.38
2023-06-21T12:04:58.569Z,30.39
2023-06-21T12:05:58.454Z,30.39
2023-06-21T12:06:58.350Z,30.39
2023-06-21T12:07:58.339Z,30.40
2023-06-21T12:08:58.317Z,30.39
2023-06-21T12:09:58.253Z,30.40
2023-06-21T12:10:58.217Z,30.40
2023-06-21T12:11:58.194Z,30.39
2023-06-21T12:12:58.154Z,30.40
2023-06-21T12:13:58.127Z,30.42
2023-06-21T12:14:58.110Z,30.38
2023-06-21T12:15:58.095Z,30.40
2023-06-21T12:16:58.028Z,30.39
2023-06-21T12:17:58.724Z,30.42
2023-06-21T12:18:57.978Z,30.39
2023-06-21T12:19:57.925Z,30.40
2023-06-21T12:20:57.906Z,30.40
2023-06-21T12:21:57.886Z,30.39
2023-06-21T12:22:57.877Z,30.40
2023-06-21T12:23:57.829Z,30.40
2023-06-21T12:24:57.784Z,30.40
2023-06-21T12:25:57.780Z,30.40
2023-06-21T12:26:57.708Z,30.38
2023-06-21T12:27:57.685Z,30.40
2023-06-21T12:28:57.648Z,30.39
2023-06-21T12:29:57.642Z,30.39
2023-06-21T12:30:57.623Z,30.39
2023-06-21T12:31:57.549Z,30.40
2023-06-21T12:32:57.609Z,30.38
2023-06-21T12:33:57.474Z,30.38
2023-06-21T12:34:57.447Z,30.39
2023-06-21T12:35:57.426Z,30.40
2023-06-21T12:36:57.393Z,30.39
2023-06-21T12:37:57.362Z,30.39
2023-06-21T12:38:57.328Z,30.39
2023-06-21T12:39:57.283Z,30.38
2023-06-21T12:40:57.243Z,30.40
2023-06-21T12:41:57.210Z,30.38
2023-06-21T12:42:57.173Z,30.39
2023-06-21T12:43:57.141Z,30.39
2023-06-21T12:44:57.108Z,30.40
2023-06-21T12:45:57.075Z,30.38
2023-06-21T12:46:57.044Z,30.38
2023-06-21T12:47:57.017Z,30.38
2023-06-21T12:48:56.969Z,30.36
2023-06-21T12:49:56.941Z,30.39
2023-06-21T12:50:56.915Z,30.36
2023-06-21T12:51:56.864Z,30.38